Stations météo

réclame
Mon MeteoGroup
Uccle, Belgique (6447): Température de l'air & dewpoint: 12.11.2018 05:00:00 - 18.11.2018 05:00:00 (CET)Uccle, Belgique (6447): Vitesse du vent & gusts: 12.11.2018 05:00:00 - 18.11.2018 05:00:00 (CET)Uccle, Belgique (6447): Direction du vent: 12.11.2018 05:00:00 - 18.11.2018 05:00:00 (CET)Uccle, Belgique (6447): reduced air pressure: 12.11.2018 05:00:00 - 18.11.2018 05:00:00 (CET)Uccle, Belgique (6447): Ensoleillement: 12.11.2018 05:00:00 - 18.11.2018 05:00:00 (CET)Uccle, Belgique (6447): Quantités de précipitations: 12.11.2018 05:00:00 - 18.11.2018 05:00:00 (CET)
Date & Time tt [°C] td [°C] ff [km/h] ff [knt] fx [km/h] fx [knt] dd ppp [hPa] sd [min] rr [mm]
18.11.2018 05:00:00 1,7 -2,5 14 8 27 15 ENE 1028,1 0 0,0
18.11.2018 04:00:00 2,2 -2,4 15 8 29 16 ENE 1028,0 0 0,0
18.11.2018 03:00:00 2,6 -2,3 16 8 30 16 ENE 1027,8 0 0,0
18.11.2018 02:00:00 2,9 -2,0 16 8 30 16 E 1027,9 0 0,0
18.11.2018 01:00:00 3,5 -1,7 11 6 31 17 E 1028,0 0 0,0
18.11.2018 00:00:00 4,3 -1,6 15 8 36 19 ENE 1027,8 0 0,0
17.11.2018 23:00:00 4,0 -0,5 16 9 28 15 ENE 1027,9 0 0,0
17.11.2018 22:00:00 4,2 0,2 15 8 30 16 ENE 1027,8 0 0,0
17.11.2018 21:00:00 5,0 0,7 18 10 31 17 ENE 1027,7 0 0,0
17.11.2018 20:00:00 5,8 1,0 16 8 33 18 ENE 1027,5 0 0,0
17.11.2018 19:00:00 6,3 1,2 18 10 35 19 ENE 1027,2 0 0,0
17.11.2018 18:00:00 7,1 0,7 17 9 39 21 ENE 1027,4 0 0,0
17.11.2018 17:00:00 7,8 0,5 18 10 36 19 ENE 1027,1 - -
17.11.2018 16:00:00 8,6 1,2 16 9 32 18 ENE 1027,0 60 0,0
17.11.2018 15:00:00 9,3 2,1 14 8 31 17 ENE 1027,0 60 0,0
17.11.2018 14:00:00 9,2 2,4 16 9 31 17 E 1027,5 60 0,0
17.11.2018 13:00:00 7,6 2,8 14 8 30 16 E 1027,6 60 0,0
17.11.2018 12:00:00 5,8 3,6 11 6 27 15 ENE 1028,0 60 0,0
17.11.2018 11:00:00 3,7 3,3 15 8 30 16 ENE 1028,1 60 0,0
17.11.2018 10:00:00 2,0 2,0 12 6 22 12 E 1028,2 60 0,1
17.11.2018 09:00:00 0,9 0,9 8 4 19 10 E 1028,2 24 0,0
17.11.2018 08:00:00 0,6 0,6 9 5 20 11 E 1028,0 0 0,0
17.11.2018 07:00:00 0,7 0,7 11 6 18 10 E 1027,8 0 0,0
17.11.2018 06:00:00 0,3 0,3 6 4 13 7 E 1027,7 0 0,0
17.11.2018 05:00:00 0,4 0,4 7 4 14 8 E 1027,8 - -
17.11.2018 04:00:00 0,7 0,7 7 4 - - E 1027,8 - -
17.11.2018 03:00:00 1,0 1,0 9 5 14 8 E 1027,8 0 0,0
17.11.2018 02:00:00 1,5 1,5 6 3 10 5 ESE 1027,7 0 0,0
17.11.2018 01:00:00 1,6 1,6 7 4 13 7 ESE 1027,4 0 0,0
17.11.2018 00:00:00 2,1 2,1 9 5 14 8 ESE 1027,5 0 0,0
16.11.2018 23:00:00 2,3 2,3 6 4 9 5 E 1027,6 0 0,0
16.11.2018 22:00:00 3,5 3,5 4 2 7 4 NE 1027,3 0 0,0
16.11.2018 21:00:00 3,7 3,7 5 3 9 5 ENE 1027,2 0 0,0
16.11.2018 20:00:00 4,3 4,3 6 3 10 6 NE 1027,0 0 0,0
16.11.2018 19:00:00 4,8 4,8 7 4 16 9 ENE 1026,9 0 0,0
16.11.2018 18:00:00 5,7 5,7 8 4 17 9 E 1026,7 0 0,0
16.11.2018 17:00:00 5,9 5,9 7 4 15 8 E 1026,7 0 0,0
16.11.2018 16:00:00 6,0 6,0 7 4 - - ESE 1026,7 - -
16.11.2018 15:00:00 6,1 6,1 5 3 13 7 E 1026,7 0 0,0
16.11.2018 14:00:00 6,0 6,0 4 2 12 6 E 1027,1 0 0,0
16.11.2018 13:00:00 5,7 5,7 7 4 11 6 ESE 1026,9 0 0,0
16.11.2018 12:00:00 5,4 5,4 5 3 11 6 ESE 1027,2 0 0,0
16.11.2018 11:00:00 5,2 5,2 4 2 8 5 E 1027,3 0 0,0
16.11.2018 10:00:00 5,0 5,0 5 3 10 6 E 1027,0 0 0,0
16.11.2018 09:00:00 4,9 4,9 5 3 13 7 S 1027,1 0 0,0
16.11.2018 08:00:00 4,9 4,9 7 4 13 7 S 1026,1 0 0,0
16.11.2018 07:00:00 5,0 5,0 7 4 13 7 SE 1025,9 0 0,0
16.11.2018 06:00:00 5,1 5,1 7 4 14 8 SSE 1025,6 - -
16.11.2018 05:00:00 5,4 5,4 6 3 13 7 S 1025,4 0 0,0
16.11.2018 04:00:00 5,7 5,7 7 4 13 7 SSE 1025,1 0 0,0
16.11.2018 03:00:00 6,2 6,2 5 3 11 6 S 1025,1 0 0,0
16.11.2018 02:00:00 6,5 6,5 6 3 15 8 S 1024,8 0 0,0
16.11.2018 01:00:00 6,7 6,7 11 6 16 9 S 1024,7 0 0,0
16.11.2018 00:00:00 6,7 6,7 10 5 18 10 S 1024,6 0 0,0
15.11.2018 23:00:00 6,4 6,0 10 5 16 9 S 1024,5 0 0,0
15.11.2018 22:00:00 7,1 6,5 9 5 15 8 SSE 1024,3 0 0,0
15.11.2018 21:00:00 7,9 7,1 5 3 14 7 WSW 1024,1 0 0,0
15.11.2018 20:00:00 7,9 6,4 5 3 13 7 WSW 1023,9 0 0,0
15.11.2018 19:00:00 9,3 6,9 7 4 15 8 SW 1023,4 0 0,0
15.11.2018 18:00:00 9,9 6,3 5 3 11 6 ESE 1023,1 0 0,0
15.11.2018 17:00:00 12,3 6,5 8 5 16 8 ESE 1022,7 51 0,0
15.11.2018 16:00:00 15,1 6,6 8 5 16 9 ESE 1022,7 60 0,0
15.11.2018 15:00:00 16,8 7,3 9 5 16 9 ESE 1022,8 60 0,0
15.11.2018 14:00:00 16,8 7,5 7 4 18 10 SE 1022,9 60 0,0
15.11.2018 13:00:00 15,7 8,0 11 6 20 11 SSE 1023,2 60 0,0
15.11.2018 12:00:00 14,0 7,8 9 5 15 8 SSE 1023,5 60 0,0
15.11.2018 11:00:00 12,0 6,8 7 4 13 7 SSE 1024,0 60 0,0
15.11.2018 10:00:00 9,6 5,3 8 5 20 11 SSE 1024,1 60 0,0
15.11.2018 09:00:00 7,0 4,5 11 6 19 10 SE 1024,0 25 0,0
15.11.2018 08:00:00 5,8 4,3 10 6 15 8 SE 1024,1 0 0,0
15.11.2018 07:00:00 6,2 4,8 7 4 13 7 SE 1023,9 0 0,0
15.11.2018 06:00:00 5,9 4,2 6 3 18 10 SSE 1023,9 0 0,0
15.11.2018 05:00:00 7,5 5,2 12 6 19 10 SE 1023,6 0 0,0
15.11.2018 04:00:00 7,3 4,8 11 6 18 10 SE 1023,7 0 0,0
15.11.2018 03:00:00 6,9 4,7 9 5 15 8 SSE 1024,0 0 0,0
15.11.2018 02:00:00 6,7 4,4 6 4 15 8 SE 1024,0 0 0,0
15.11.2018 01:00:00 7,5 4,5 11 6 22 12 SSE 1024,1 0 0,0
15.11.2018 00:00:00 8,1 4,9 15 8 26 14 SSE 1024,2 0 0,0
14.11.2018 23:00:00 8,5 5,3 17 9 27 15 SSE 1024,3 0 0,0
14.11.2018 22:00:00 8,5 5,5 16 9 25 13 SSE 1024,1 0 0,0
14.11.2018 21:00:00 8,9 5,6 14 8 22 12 SE 1024,3 0 0,0
14.11.2018 20:00:00 8,7 6,0 15 8 20 11 SE 1024,5 0 0,0
14.11.2018 19:00:00 8,3 5,9 11 6 18 10 SE 1024,9 0 0,0
14.11.2018 18:00:00 9,3 5,6 10 6 17 9 ESE 1024,9 0 0,0
14.11.2018 17:00:00 11,5 6,0 13 7 22 12 SE 1025,0 58 0,0
14.11.2018 16:00:00 12,4 6,4 13 7 23 12 SE 1025,6 60 0,0
14.11.2018 15:00:00 13,4 7,1 11 6 29 16 SSE 1025,8 60 0,0
14.11.2018 14:00:00 13,2 7,2 13 7 25 14 S 1026,1 60 0,0
14.11.2018 13:00:00 13,0 8,0 14 8 24 13 SSE 1026,5 60 0,0
14.11.2018 12:00:00 11,9 7,9 14 8 24 13 S 1027,0 60 0,0
14.11.2018 11:00:00 10,5 7,5 13 7 25 14 S 1027,4 60 0,0
14.11.2018 10:00:00 7,6 6,3 18 10 26 14 SSE 1027,5 60 0,0
14.11.2018 09:00:00 6,5 5,9 16 9 22 12 SSE 1027,7 19 0,0
14.11.2018 08:00:00 6,3 5,7 16 9 24 13 SSE 1027,4 0 0,0
14.11.2018 07:00:00 6,5 5,8 18 10 25 13 SSE 1027,1 0 0,0
14.11.2018 06:00:00 6,7 5,9 17 9 25 13 SSE 1027,3 0 0,0
14.11.2018 05:00:00 6,7 5,7 14 8 22 12 SSE 1027,7 - -
14.11.2018 04:00:00 7,1 5,9 11 6 - - S 1028,1 - -
14.11.2018 03:00:00 7,2 5,8 8 5 16 9 S 1028,8 0 0,0
14.11.2018 02:00:00 7,6 6,2 10 5 16 9 SSE 1028,9 0 0,0
14.11.2018 01:00:00 7,5 5,8 7 4 17 9 S 1028,9 0 0,0
14.11.2018 00:00:00 9,2 6,9 11 6 22 12 SSW 1028,8 0 0,0
13.11.2018 23:00:00 8,6 6,6 10 5 18 10 S 1028,8 0 0,0
13.11.2018 22:00:00 9,5 6,9 9 5 18 10 S 1028,6 0 0,0
13.11.2018 21:00:00 10,4 7,3 10 5 21 11 SSW 1028,2 0 0,0
13.11.2018 20:00:00 10,2 7,4 11 6 22 12 SSW 1027,9 0 0,0
13.11.2018 19:00:00 10,8 7,8 11 6 21 12 SSW 1027,3 0 0,0
13.11.2018 18:00:00 10,9 7,8 13 7 28 15 SW 1027,2 0 0,0
13.11.2018 17:00:00 11,6 7,9 15 8 30 16 SW 1026,5 15 0,0
13.11.2018 16:00:00 12,3 7,9 16 9 37 20 SW 1025,7 25 0,0
13.11.2018 15:00:00 12,9 7,6 18 10 39 21 SW 1025,1 47 0,0
13.11.2018 14:00:00 12,7 8,3 19 11 42 23 SW 1024,7 30 0,0
13.11.2018 13:00:00 12,4 8,5 22 12 43 23 SW 1024,1 40 0,0
13.11.2018 12:00:00 11,7 8,3 22 12 45 24 SW 1023,8 35 0,0
13.11.2018 11:00:00 10,4 8,4 21 11 48 26 SW 1023,3 0 0,0
13.11.2018 10:00:00 10,7 7,9 23 13 47 25 SW 1022,4 13 0,0
13.11.2018 09:00:00 10,2 8,0 22 12 42 23 SSW 1021,5 2 0,0
13.11.2018 08:00:00 9,9 8,0 19 11 36 19 SSW 1020,8 0 0,0
13.11.2018 07:00:00 9,7 8,0 18 10 37 20 SSW 1020,0 0 0,0
13.11.2018 06:00:00 10,0 8,5 19 11 35 19 SSW 1019,8 0 0,0
13.11.2018 05:00:00 9,6 8,4 16 9 38 20 SSW 1018,9 0 0,0
13.11.2018 04:00:00 9,5 8,2 15 8 31 17 SSW 1018,7 0 0,0
13.11.2018 03:00:00 9,5 8,2 16 9 32 18 S 1018,7 0 0,0
13.11.2018 02:00:00 9,2 8,2 16 9 28 15 S 1018,3 0 0,0
13.11.2018 01:00:00 9,1 8,1 14 8 27 15 SSE 1018,0 0 0,0
13.11.2018 00:00:00 9,0 8,0 16 9 25 13 S 1018,0 0 0,0
12.11.2018 23:00:00 9,0 8,3 13 7 25 13 S 1017,8 0 0,0
12.11.2018 22:00:00 9,0 8,5 10 5 21 11 SSE 1017,2 0 0,0
12.11.2018 21:00:00 8,9 8,5 14 7 21 11 S 1017,5 0 0,0
12.11.2018 20:00:00 8,8 8,5 9 5 20 11 SSE 1017,3 0 0,0
12.11.2018 19:00:00 9,1 8,8 14 8 21 11 S 1017,0 0 0,0
12.11.2018 18:00:00 9,5 9,2 10 5 18 10 S 1016,1 0 0,0
12.11.2018 17:00:00 9,8 9,5 7 4 14 8 SSW 1015,5 - -
12.11.2018 16:00:00 10,0 9,6 8 4 13 7 SW 1014,9 0 0,0
12.11.2018 15:00:00 9,8 9,5 7 4 16 9 SW 1014,3 0 0,0
12.11.2018 14:00:00 9,8 9,8 6 3 16 9 WSW 1013,3 0 0,1
12.11.2018 13:00:00 10,2 10,2 7 4 20 11 WSW 1013,3 0 1,8
12.11.2018 12:00:00 10,5 10,5 4 2 13 7 WSW 1012,7 0 1,8
12.11.2018 11:00:00 10,4 10,4 8 4 15 8 WSW 1012,5 0 0,5
12.11.2018 10:00:00 10,2 10,2 5 3 11 6 SSW 1011,6 0 0,4
12.11.2018 09:00:00 10,3 10,3 6 4 11 6 S 1011,5 0 2,4
12.11.2018 08:00:00 10,3 10,3 7 4 13 7 SSE 1010,9 0 1,3
12.11.2018 07:00:00 10,3 10,2 11 6 16 9 SSE 1011,0 0 1,4
12.11.2018 06:00:00 10,3 10,2 12 6 17 9 SSE 1010,9 0 0,8
12.11.2018 05:00:00 10,2 10,0 7 4 17 9 SSE 1010,8 0 0,4

tt = Température de l'air
td = dewpoint
ff = Vitesse du vent
fx = gusts
dd = Direction du vent
ppp = reduced air pressure
sd = Ensoleillement
rr = Quantités de précipitations

stations d'obs. à proximité